createdAt,value
2017-10-03T00:02:04.842Z,15.90
2017-10-03T00:04:34.193Z,16.00
2017-10-03T00:07:03.652Z,16.00
2017-10-03T00:09:32.912Z,16.00
2017-10-03T00:12:03.678Z,15.80
2017-10-03T00:14:33.119Z,15.80
2017-10-03T00:17:02.174Z,15.80
2017-10-03T00:19:31.773Z,15.70
2017-10-03T00:22:01.565Z,15.70
2017-10-03T00:24:32.486Z,15.70
2017-10-03T00:27:02.042Z,15.70
2017-10-03T00:29:31.272Z,15.70
2017-10-03T00:32:00.522Z,15.70
2017-10-03T00:34:29.763Z,15.70
2017-10-03T00:36:59.102Z,15.70
2017-10-03T00:39:28.656Z,15.70
2017-10-03T00:41:58.012Z,15.70
2017-10-03T00:44:27.181Z,15.80
2017-10-03T00:46:57.283Z,15.80
2017-10-03T00:49:26.695Z,15.80
2017-10-03T00:51:55.923Z,15.80
2017-10-03T00:54:26.221Z,15.80
2017-10-03T00:56:55.470Z,15.80
2017-10-03T00:59:24.823Z,15.80
2017-10-03T01:01:54.268Z,15.80
2017-10-03T01:04:23.480Z,15.80
2017-10-03T01:06:53.131Z,15.70
2017-10-03T01:09:22.260Z,15.70
2017-10-03T01:11:52.297Z,15.60
2017-10-03T01:14:21.892Z,15.60
2017-10-03T01:16:51.822Z,15.60
2017-10-03T01:19:20.912Z,15.60
2017-10-03T01:21:50.273Z,15.60
2017-10-03T01:24:19.548Z,15.60
2017-10-03T01:26:48.727Z,15.50
2017-10-03T01:29:17.984Z,15.50
2017-10-03T01:31:47.194Z,15.50
2017-10-03T01:34:17.357Z,15.40
2017-10-03T01:36:46.675Z,15.40
2017-10-03T01:39:15.904Z,15.30
2017-10-03T01:41:45.408Z,15.30
2017-10-03T01:44:14.570Z,15.20
2017-10-03T01:46:43.819Z,15.10
2017-10-03T01:49:13.567Z,15.10
2017-10-03T01:51:42.975Z,15.10
2017-10-03T01:54:12.162Z,15.00
2017-10-03T01:56:41.687Z,15.00
2017-10-03T01:59:10.977Z,14.80
2017-10-03T02:01:40.513Z,14.80
2017-10-03T02:04:09.759Z,14.70
2017-10-03T02:06:38.959Z,14.60
2017-10-03T02:09:08.087Z,14.50
2017-10-03T02:11:37.371Z,14.40
2017-10-03T02:14:06.983Z,14.30
2017-10-03T02:16:36.245Z,14.30
2017-10-03T02:19:06.227Z,14.10
2017-10-03T02:21:35.675Z,14.10
2017-10-03T02:24:05.586Z,14.10
2017-10-03T02:26:35.852Z,14.10
2017-10-03T02:29:05.089Z,14.00
2017-10-03T02:31:34.294Z,14.00
2017-10-03T02:34:03.966Z,14.00
2017-10-03T02:36:33.375Z,14.00
2017-10-03T02:39:02.479Z,14.00
2017-10-03T02:41:32.160Z,13.90
2017-10-03T02:44:01.560Z,13.90
2017-10-03T02:46:31.212Z,13.80
2017-10-03T02:49:00.456Z,13.80
2017-10-03T02:51:31.591Z,13.80
2017-10-03T02:54:00.910Z,13.70
2017-10-03T02:56:30.232Z,13.70
2017-10-03T02:58:59.441Z,13.70
2017-10-03T03:01:29.161Z,13.70
2017-10-03T03:03:58.493Z,13.70
2017-10-03T03:06:28.025Z,13.70
2017-10-03T03:08:57.803Z,13.70
2017-10-03T03:11:26.992Z,13.70
2017-10-03T03:13:57.155Z,13.60
2017-10-03T03:16:26.419Z,13.60
2017-10-03T03:18:56.502Z,13.50
2017-10-03T03:21:25.832Z,13.50
2017-10-03T03:23:55.226Z,13.50
2017-10-03T03:26:24.698Z,13.50
2017-10-03T03:28:54.658Z,13.50
2017-10-03T03:31:24.815Z,13.40
2017-10-03T03:33:54.065Z,13.40
2017-10-03T03:36:23.106Z,13.50
2017-10-03T03:38:52.123Z,13.30
2017-10-03T03:41:21.554Z,13.40
2017-10-03T03:43:51.294Z,13.40
2017-10-03T03:46:21.432Z,13.40
2017-10-03T03:48:50.287Z,13.40
2017-10-03T03:51:19.704Z,13.40
2017-10-03T03:53:51.539Z,13.30
2017-10-03T03:56:20.917Z,13.30
2017-10-03T03:58:50.304Z,13.30
2017-10-03T04:01:19.563Z,13.30
2017-10-03T04:03:49.394Z,13.00
2017-10-03T04:06:19.015Z,13.00
2017-10-03T04:08:48.500Z,12.90
2017-10-03T04:11:18.653Z,12.60
2017-10-03T04:13:48.381Z,12.60
2017-10-03T04:16:18.260Z,12.50
2017-10-03T04:18:47.293Z,12.40
2017-10-03T04:21:16.732Z,12.40
2017-10-03T04:23:46.668Z,12.30
2017-10-03T04:26:16.096Z,12.30
2017-10-03T04:28:45.474Z,12.10
2017-10-03T04:31:16.022Z,12.30
2017-10-03T04:33:45.107Z,12.20
2017-10-03T04:36:16.190Z,12.30
2017-10-03T04:38:45.676Z,12.40
2017-10-03T04:41:14.769Z,12.50
2017-10-03T04:43:44.663Z,12.10
2017-10-03T04:46:14.137Z,12.30
2017-10-03T04:48:44.100Z,12.20
2017-10-03T04:51:13.403Z,12.20
2017-10-03T04:53:42.468Z,12.20
2017-10-03T04:56:12.362Z,12.20
2017-10-03T04:58:41.849Z,12.10
2017-10-03T05:01:11.434Z,12.10
2017-10-03T05:03:40.539Z,12.20
2017-10-03T05:06:09.954Z,12.30
2017-10-03T05:08:39.447Z,12.10
2017-10-03T05:11:08.592Z,12.10
2017-10-03T05:13:37.768Z,12.10
2017-10-03T05:16:07.140Z,12.00
2017-10-03T05:18:36.282Z,12.00
2017-10-03T05:21:06.392Z,12.40
2017-10-03T05:23:35.754Z,12.10
2017-10-03T05:26:05.168Z,12.00
2017-10-03T05:28:34.310Z,12.00
2017-10-03T05:31:03.651Z,11.90
2017-10-03T05:33:32.969Z,11.90
2017-10-03T05:36:02.103Z,11.90
2017-10-03T05:38:31.914Z,12.00
2017-10-03T05:41:01.926Z,11.50
2017-10-03T05:43:31.276Z,11.40
2017-10-03T05:46:01.337Z,11.40
2017-10-03T05:48:30.499Z,11.50
2017-10-03T05:50:59.707Z,11.40
2017-10-03T05:53:29.162Z,11.50
2017-10-03T05:55:58.441Z,11.30
2017-10-03T05:58:28.626Z,11.40
2017-10-03T06:00:58.045Z,11.50
2017-10-03T06:03:27.479Z,11.10
2017-10-03T06:05:56.839Z,11.10
2017-10-03T06:08:26.318Z,11.20
2017-10-03T06:10:55.499Z,11.40
2017-10-03T06:13:25.025Z,11.30
2017-10-03T06:15:54.377Z,11.20
2017-10-03T06:18:23.647Z,11.10
2017-10-03T06:20:53.109Z,11.00
2017-10-03T06:23:23.265Z,10.90
2017-10-03T06:25:52.690Z,10.90
2017-10-03T06:28:21.837Z,11.00
2017-10-03T06:30:51.275Z,11.00
2017-10-03T06:33:20.341Z,11.10
2017-10-03T06:35:49.828Z,11.10
2017-10-03T06:38:19.949Z,10.80
2017-10-03T06:40:49.292Z,10.80
2017-10-03T06:43:18.623Z,10.80
2017-10-03T06:45:47.815Z,11.00
2017-10-03T06:48:17.121Z,10.80
2017-10-03T06:50:46.337Z,10.80
2017-10-03T06:53:16.616Z,10.80
2017-10-03T06:55:45.727Z,10.90
2017-10-03T06:58:14.885Z,10.80
2017-10-03T07:00:44.850Z,10.70
2017-10-03T07:03:13.937Z,10.70
2017-10-03T07:05:43.169Z,10.90
2017-10-03T07:08:13.221Z,10.50
2017-10-03T07:10:42.547Z,10.70
2017-10-03T07:13:11.792Z,10.60
2017-10-03T07:15:41.898Z,10.60
2017-10-03T07:18:11.824Z,10.60
2017-10-03T07:20:41.831Z,10.60
2017-10-03T07:23:12.012Z,10.60
2017-10-03T07:25:41.397Z,10.60
2017-10-03T07:28:10.597Z,10.70
2017-10-03T07:30:39.802Z,10.50
2017-10-03T07:33:09.409Z,10.60
2017-10-03T07:35:38.672Z,10.20
2017-10-03T07:38:08.154Z,10.20
2017-10-03T07:40:37.388Z,10.30
2017-10-03T07:43:06.719Z,10.20
2017-10-03T07:45:36.052Z,10.10
2017-10-03T07:48:05.499Z,10.20
2017-10-03T07:50:35.298Z,10.20
2017-10-03T07:53:05.651Z,10.00
2017-10-03T07:55:35.387Z,10.00
2017-10-03T07:58:05.244Z,10.20
2017-10-03T08:00:35.766Z,9.90
2017-10-03T08:03:05.703Z,9.90
2017-10-03T08:05:35.634Z,10.20
2017-10-03T08:08:05.401Z,9.90
2017-10-03T08:10:35.425Z,10.00
2017-10-03T08:13:06.387Z,10.00
2017-10-03T08:15:36.276Z,10.20
2017-10-03T08:18:06.500Z,9.90
2017-10-03T08:20:37.143Z,9.60
2017-10-03T08:23:07.401Z,10.20
2017-10-03T08:25:36.786Z,10.20
2017-10-03T08:28:06.470Z,9.90
2017-10-03T08:30:37.301Z,9.80
2017-10-03T08:33:07.545Z,9.80
2017-10-03T08:35:36.872Z,9.80
2017-10-03T08:38:06.252Z,10.10
2017-10-03T08:40:35.462Z,9.70
2017-10-03T08:43:05.019Z,9.70
2017-10-03T08:45:34.399Z,9.80
2017-10-03T08:48:03.721Z,9.80
2017-10-03T08:50:32.889Z,9.50
2017-10-03T08:53:02.297Z,9.60
2017-10-03T08:55:31.470Z,9.60
2017-10-03T08:58:00.983Z,9.20
2017-10-03T09:00:33.945Z,9.20
2017-10-03T09:03:03.228Z,9.20
2017-10-03T09:05:33.368Z,9.10
2017-10-03T09:08:03.446Z,9.00
2017-10-03T09:10:32.713Z,9.00
2017-10-03T09:13:02.482Z,8.90
2017-10-03T09:15:32.646Z,8.80
2017-10-03T09:18:02.067Z,8.80
2017-10-03T09:20:32.872Z,9.00
2017-10-03T09:23:02.440Z,8.70
2017-10-03T09:25:31.681Z,9.00
2017-10-03T09:28:00.979Z,8.60
2017-10-03T09:30:30.238Z,8.80
2017-10-03T09:32:59.695Z,8.50
2017-10-03T09:35:28.953Z,8.40
2017-10-03T09:37:58.070Z,8.50
2017-10-03T09:40:27.427Z,8.50
2017-10-03T09:42:56.512Z,8.50
2017-10-03T09:45:25.683Z,8.60
2017-10-03T09:47:54.742Z,8.40
2017-10-03T09:50:23.856Z,8.40
2017-10-03T09:52:52.924Z,8.50
2017-10-03T09:55:22.225Z,8.40
2017-10-03T09:57:52.421Z,8.20
2017-10-03T10:00:21.716Z,8.40
2017-10-03T10:02:50.912Z,8.30
2017-10-03T10:05:20.339Z,8.10
2017-10-03T10:07:50.734Z,8.00
2017-10-03T10:10:19.996Z,8.20
2017-10-03T10:12:49.431Z,8.10
2017-10-03T10:15:18.791Z,8.20
2017-10-03T10:17:49.116Z,8.10
2017-10-03T10:20:18.832Z,8.00
2017-10-03T10:22:48.241Z,8.10
2017-10-03T10:25:17.577Z,8.10
2017-10-03T10:27:47.152Z,8.20
2017-10-03T10:30:16.485Z,8.10
2017-10-03T10:32:46.145Z,8.10
2017-10-03T10:35:15.603Z,8.10
2017-10-03T10:37:44.881Z,8.20
2017-10-03T10:40:14.195Z,7.90
2017-10-03T10:42:43.605Z,7.80
2017-10-03T10:45:13.061Z,7.90
2017-10-03T10:47:43.380Z,7.80
2017-10-03T10:50:13.506Z,7.80
2017-10-03T10:52:43.882Z,8.00
2017-10-03T10:55:13.320Z,7.70
2017-10-03T10:57:42.758Z,7.80
2017-10-03T11:00:12.325Z,7.60
2017-10-03T11:02:41.834Z,7.80
2017-10-03T11:05:11.252Z,7.90
2017-10-03T11:07:40.610Z,7.70
2017-10-03T11:10:10.824Z,8.10
2017-10-03T11:12:40.125Z,7.80
2017-10-03T11:15:09.599Z,7.80
2017-10-03T11:17:39.735Z,7.80
2017-10-03T11:20:08.932Z,7.80
2017-10-03T11:22:49.661Z,7.80
2017-10-03T11:25:19.932Z,7.80
2017-10-03T11:27:49.310Z,7.70
2017-10-03T11:30:18.570Z,7.80
2017-10-03T11:32:47.729Z,7.80
2017-10-03T11:35:17.027Z,7.70
2017-10-03T11:37:46.218Z,7.80
2017-10-03T11:40:15.339Z,7.80
2017-10-03T11:42:44.622Z,7.70
2017-10-03T11:45:13.951Z,7.80
2017-10-03T11:47:43.202Z,8.10
2017-10-03T11:50:12.390Z,8.10
2017-10-03T11:52:42.264Z,7.80
2017-10-03T11:55:11.459Z,7.80
2017-10-03T11:57:40.963Z,7.80
2017-10-03T12:00:10.304Z,7.70
2017-10-03T12:02:40.316Z,7.80
2017-10-03T12:05:09.831Z,7.80
2017-10-03T12:07:39.906Z,7.70
2017-10-03T12:10:09.484Z,7.70
2017-10-03T12:12:39.611Z,7.70
2017-10-03T12:15:08.670Z,7.70
2017-10-03T12:17:38.052Z,7.80
2017-10-03T12:20:07.455Z,7.70
2017-10-03T12:22:36.593Z,7.60
2017-10-03T12:25:05.907Z,7.70
2017-10-03T12:27:35.339Z,7.70
2017-10-03T12:30:04.613Z,7.50
2017-10-03T12:32:33.861Z,7.50
2017-10-03T12:35:03.866Z,7.70
2017-10-03T12:37:33.037Z,7.80
2017-10-03T12:40:02.448Z,7.50
2017-10-03T12:42:31.532Z,7.40
2017-10-03T12:45:00.685Z,7.40
2017-10-03T12:47:30.858Z,7.60
2017-10-03T12:50:00.259Z,7.70
2017-10-03T12:52:29.476Z,7.60
2017-10-03T12:54:58.846Z,7.40
2017-10-03T12:57:27.906Z,7.40
2017-10-03T12:59:57.390Z,7.40
2017-10-03T13:02:26.642Z,7.30
2017-10-03T13:04:56.050Z,7.50
2017-10-03T13:07:25.222Z,7.40
2017-10-03T13:09:54.776Z,7.50
2017-10-03T13:12:24.127Z,7.40
2017-10-03T13:14:54.618Z,7.40
2017-10-03T13:17:24.120Z,7.40
2017-10-03T13:19:53.295Z,7.30
2017-10-03T13:22:22.931Z,7.30
2017-10-03T13:24:52.330Z,7.30
2017-10-03T13:27:21.620Z,7.20
2017-10-03T13:29:50.957Z,7.30
2017-10-03T13:32:20.407Z,7.60
2017-10-03T13:34:49.767Z,7.70
2017-10-03T13:37:19.937Z,7.70
2017-10-03T13:39:49.244Z,7.70
2017-10-03T13:42:18.467Z,7.70
2017-10-03T13:44:47.705Z,7.80
2017-10-03T13:47:16.969Z,7.60
2017-10-03T13:49:46.042Z,7.60
2017-10-03T13:52:15.129Z,7.60
2017-10-03T13:54:44.312Z,7.80
2017-10-03T13:57:13.434Z,8.00
2017-10-03T13:59:42.696Z,8.10
2017-10-03T14:02:11.828Z,8.00
2017-10-03T14:04:41.144Z,8.10
2017-10-03T14:07:10.179Z,8.00
2017-10-03T14:09:39.633Z,8.10
2017-10-03T14:12:08.769Z,8.00
2017-10-03T14:14:38.309Z,8.10
2017-10-03T14:17:08.532Z,8.00
2017-10-03T14:19:37.636Z,8.00
2017-10-03T14:22:06.966Z,7.90
2017-10-03T14:24:36.468Z,8.10
2017-10-03T14:27:05.650Z,8.00
2017-10-03T14:29:35.102Z,7.90
2017-10-03T14:32:04.410Z,8.00
2017-10-03T14:34:34.522Z,8.00
2017-10-03T14:42:26.862Z,8.10
2017-10-03T14:45:10.444Z,8.00
2017-10-03T15:06:29.572Z,8.50
2017-10-03T15:08:58.798Z,8.50
2017-10-03T15:11:28.379Z,8.50
2017-10-03T15:13:58.016Z,8.80
2017-10-03T15:16:28.356Z,9.00
2017-10-03T15:18:59.318Z,8.80
2017-10-03T15:21:28.640Z,9.20
2017-10-03T15:23:57.836Z,9.20
2017-10-03T15:26:27.150Z,9.60
2017-10-03T15:28:56.479Z,10.10
2017-10-03T15:31:26.513Z,10.30
2017-10-03T15:33:56.350Z,11.10
2017-10-03T15:36:25.501Z,11.80
2017-10-03T15:38:55.747Z,13.20
2017-10-03T15:41:25.066Z,13.10
2017-10-03T15:43:54.425Z,13.40
2017-10-03T15:46:24.768Z,14.40
2017-10-03T15:48:54.161Z,14.30
2017-10-03T15:51:23.440Z,15.30
2017-10-03T15:53:52.755Z,16.50
2017-10-03T15:56:23.091Z,18.60
2017-10-03T15:58:52.774Z,18.60
2017-10-03T16:01:22.012Z,19.70
2017-10-03T16:03:51.576Z,20.60
2017-10-03T16:06:20.897Z,21.10
2017-10-03T16:08:50.528Z,21.20
2017-10-03T16:11:19.650Z,21.40
2017-10-03T16:13:49.084Z,21.30
2017-10-03T16:16:18.398Z,20.80
2017-10-03T16:18:47.791Z,20.70
2017-10-03T16:21:19.110Z,20.20
2017-10-03T16:23:48.687Z,19.90
2017-10-03T16:26:18.939Z,18.50
2017-10-03T16:28:48.024Z,18.50
2017-10-03T16:31:17.483Z,17.80
2017-10-03T16:33:46.782Z,17.50
2017-10-03T16:36:16.138Z,17.30
2017-10-03T16:38:45.424Z,17.40
2017-10-03T16:41:15.779Z,17.80
2017-10-03T16:43:45.360Z,17.90
2017-10-03T16:46:15.731Z,18.00
2017-10-03T16:48:44.978Z,18.20
2017-10-03T16:51:14.016Z,18.30
2017-10-03T16:53:43.349Z,18.50
2017-10-03T16:56:12.525Z,18.30
2017-10-03T16:58:41.960Z,18.00
2017-10-03T17:01:11.366Z,18.00
2017-10-03T17:03:40.420Z,17.70
2017-10-03T17:06:09.556Z,17.20
2017-10-03T17:08:40.251Z,17.00
2017-10-03T17:11:09.676Z,17.00
2017-10-03T17:13:39.627Z,16.60
2017-10-03T17:16:08.932Z,16.50
2017-10-03T17:18:38.052Z,16.30
2017-10-03T17:21:07.648Z,16.20
2017-10-03T17:23:37.683Z,16.20
2017-10-03T17:26:08.063Z,16.00
2017-10-03T17:28:37.441Z,15.60
2017-10-03T17:31:06.920Z,15.70
2017-10-03T17:33:36.020Z,15.60
2017-10-03T17:36:05.961Z,15.70
2017-10-03T17:38:36.060Z,15.50
2017-10-03T17:41:05.302Z,15.50
2017-10-03T17:43:34.471Z,15.60
2017-10-03T17:46:05.140Z,15.60
2017-10-03T17:48:34.522Z,15.60
2017-10-03T17:51:03.851Z,15.80
2017-10-03T17:53:34.422Z,15.90
2017-10-03T17:56:03.845Z,16.00
2017-10-03T17:58:34.177Z,16.10
2017-10-03T18:01:03.545Z,16.10
2017-10-03T18:03:33.574Z,16.20
2017-10-03T18:06:02.740Z,16.20
2017-10-03T18:08:32.060Z,16.30
2017-10-03T18:11:01.342Z,16.30
2017-10-03T18:13:31.323Z,16.40
2017-10-03T18:16:00.728Z,16.60
2017-10-03T18:18:29.959Z,16.70
2017-10-03T18:20:59.510Z,16.70
2017-10-03T18:23:29.110Z,16.70
2017-10-03T18:25:58.630Z,16.80
2017-10-03T18:28:27.544Z,16.80
2017-10-03T18:30:56.761Z,16.80
2017-10-03T18:33:26.120Z,16.90
2017-10-03T18:35:56.327Z,17.20
2017-10-03T18:38:25.597Z,17.10
2017-10-03T18:40:55.683Z,17.30
2017-10-03T18:43:25.111Z,17.50
2017-10-03T18:45:54.429Z,17.60
2017-10-03T18:48:23.720Z,17.60
2017-10-03T18:50:52.900Z,17.70
2017-10-03T18:53:22.197Z,17.70
2017-10-03T18:55:51.479Z,17.80
2017-10-03T18:58:21.450Z,18.00
2017-10-03T19:00:51.359Z,18.00
2017-10-03T19:03:20.549Z,18.20
2017-10-03T19:05:49.726Z,18.30
2017-10-03T19:08:19.274Z,18.30
2017-10-03T19:10:48.732Z,18.50
2017-10-03T19:13:18.084Z,18.50
2017-10-03T19:15:47.333Z,18.60
2017-10-03T19:18:16.541Z,18.70
2017-10-03T19:20:45.863Z,18.70
2017-10-03T19:23:15.183Z,18.70
2017-10-03T19:25:44.631Z,18.70
2017-10-03T19:28:14.824Z,18.90
2017-10-03T19:30:44.909Z,18.80
2017-10-03T19:33:14.157Z,18.80
2017-10-03T19:35:43.505Z,18.80
2017-10-03T19:38:12.799Z,18.80
2017-10-03T19:40:42.277Z,18.90
2017-10-03T19:43:11.842Z,18.80
2017-10-03T19:45:41.107Z,18.90
2017-10-03T19:48:10.300Z,19.00
2017-10-03T19:50:39.802Z,19.10
2017-10-03T19:53:08.959Z,19.10
2017-10-03T19:55:38.925Z,19.30
2017-10-03T19:58:08.064Z,19.20
2017-10-03T20:00:44.199Z,19.20
2017-10-03T20:03:13.581Z,19.10
2017-10-03T20:05:42.707Z,19.00
2017-10-03T20:08:12.008Z,19.00
2017-10-03T20:10:41.500Z,19.10
2017-10-03T20:13:10.571Z,19.30
2017-10-03T20:15:39.762Z,19.30
2017-10-03T20:18:09.239Z,19.20
2017-10-03T20:20:38.578Z,19.20
2017-10-03T20:23:07.853Z,19.20
2017-10-03T20:25:37.152Z,19.20
2017-10-03T20:28:06.430Z,19.20
2017-10-03T20:30:36.607Z,19.30
2017-10-03T20:33:05.718Z,19.40
2017-10-03T20:35:35.239Z,19.30
2017-10-03T20:38:04.738Z,19.30
2017-10-03T20:40:34.098Z,19.40
2017-10-03T20:43:03.590Z,19.40
2017-10-03T20:45:32.734Z,19.50
2017-10-03T20:48:02.685Z,19.50
2017-10-03T20:50:31.939Z,19.50
2017-10-03T20:53:01.312Z,19.50
2017-10-03T20:55:30.557Z,19.60
2017-10-03T20:57:59.758Z,19.60
2017-10-03T21:00:28.887Z,19.70
2017-10-03T21:02:58.337Z,19.70
2017-10-03T21:05:27.879Z,19.80
2017-10-03T21:07:57.153Z,19.80
2017-10-03T21:10:26.525Z,19.70
2017-10-03T21:12:55.852Z,19.70
2017-10-03T21:15:25.094Z,19.80
2017-10-03T21:17:55.063Z,19.80
2017-10-03T21:20:24.415Z,19.80
2017-10-03T21:22:53.863Z,19.80
2017-10-03T21:25:23.179Z,19.80
2017-10-03T21:27:52.587Z,19.80
2017-10-03T21:30:21.706Z,19.80
2017-10-03T21:32:52.355Z,19.80
2017-10-03T21:35:22.511Z,20.00
2017-10-03T21:37:58.610Z,20.00
2017-10-03T21:40:30.930Z,20.00
2017-10-03T21:43:17.807Z,19.90
2017-10-03T21:45:46.962Z,20.00
2017-10-03T21:48:16.435Z,20.00
2017-10-03T21:50:45.566Z,19.90
2017-10-03T21:53:15.097Z,20.00
2017-10-03T21:55:44.136Z,20.00
2017-10-03T21:58:13.588Z,20.00
2017-10-03T22:00:42.810Z,20.00
2017-10-03T22:03:11.867Z,20.00
2017-10-03T22:05:41.336Z,20.00
2017-10-03T22:08:10.847Z,20.00
2017-10-03T22:10:40.103Z,20.10
2017-10-03T22:13:09.412Z,20.10
2017-10-03T22:15:38.747Z,20.20
2017-10-03T22:18:07.875Z,20.10
2017-10-03T22:20:37.295Z,20.00
2017-10-03T22:23:06.729Z,20.10
2017-10-03T22:25:36.058Z,20.10
2017-10-03T22:28:05.512Z,20.10
2017-10-03T22:30:34.710Z,20.10
2017-10-03T22:33:04.771Z,20.10
2017-10-03T22:35:34.046Z,20.10
2017-10-03T22:38:03.915Z,20.10
2017-10-03T22:40:33.433Z,20.10
2017-10-03T22:43:02.814Z,20.10
2017-10-03T22:45:32.328Z,20.00
2017-10-03T22:48:01.577Z,20.10
2017-10-03T22:50:30.927Z,20.00
2017-10-03T22:53:00.378Z,20.00
2017-10-03T22:55:31.343Z,20.10
2017-10-03T22:58:00.941Z,20.10
2017-10-03T23:00:30.139Z,20.20
2017-10-03T23:03:00.103Z,20.10
2017-10-03T23:05:29.281Z,20.10
2017-10-03T23:07:58.607Z,20.10
2017-10-03T23:10:27.870Z,20.20
2017-10-03T23:12:57.540Z,20.10
2017-10-03T23:15:26.775Z,20.10
2017-10-03T23:17:56.120Z,20.10
2017-10-03T23:20:25.614Z,20.20
2017-10-03T23:22:54.880Z,20.00
2017-10-03T23:25:25.423Z,20.10
2017-10-03T23:27:54.859Z,20.10
2017-10-03T23:30:24.011Z,20.10
2017-10-03T23:32:53.308Z,20.00
2017-10-03T23:35:23.610Z,20.00
2017-10-03T23:37:52.943Z,20.00
2017-10-03T23:40:22.315Z,20.10
2017-10-03T23:42:51.481Z,20.10
2017-10-03T23:45:20.768Z,20.00
2017-10-03T23:47:50.129Z,20.00
2017-10-03T23:50:19.475Z,20.00
2017-10-03T23:52:48.811Z,20.00
2017-10-03T23:55:17.954Z,20.00
2017-10-03T23:57:47.439Z,20.00
